Time;durP1;ratioP1;P1;durP2;ratioP2;P2;SDS_P1;SDS_P2;PMS_P1;PMS_P2;Temp;Humidity;BMP_temperature;BMP_pressure;BME280_temperature;BME280_humidity;BME280_pressure;Samples;Min_cycle;Max_cycle;Signal;HPM_P1;HPM_P2
2023/06/29 00:01:43;;;;;;;14.13;5.05;;;19.30;99.90;;;;;;4981101;28;20034;-72
2023/06/29 00:04:09;;;;;;;12.23;5.55;;;19.20;99.90;;;;;;4980362;28;20099;-72
2023/06/29 00:06:36;;;;;;;12.63;5.03;;;19.20;99.90;;;;;;4980689;28;20161;-72
2023/06/29 00:09:04;;;;;;;13.48;5.88;;;19.20;99.90;;;;;;4980164;28;20026;-72
2023/06/29 00:11:30;;;;;;;11.13;5.55;;;19.10;99.90;;;;;;4980118;28;20406;-72
2023/06/29 00:13:56;;;;;;;9.00;5.40;;;19.10;99.90;;;;;;4980323;28;20391;-72
2023/06/29 00:16:22;;;;;;;11.00;5.18;;;19.10;99.90;;;;;;4980441;28;20042;-72
2023/06/29 00:18:49;;;;;;;10.65;5.00;;;19.00;99.90;;;;;;4979681;28;20022;-73
2023/06/29 00:21:16;;;;;;;7.57;5.00;;;19.00;99.90;;;;;;4980233;28;20058;-73
2023/06/29 00:23:42;;;;;;;9.77;4.80;;;19.00;99.90;;;;;;4980462;28;20101;-72
2023/06/29 00:26:07;;;;;;;10.27;4.47;;;19.00;99.90;;;;;;4979841;28;20116;-72
2023/06/29 00:28:33;;;;;;;9.00;4.97;;;19.00;99.90;;;;;;4980435;28;20080;-72
2023/06/29 00:30:59;;;;;;;7.70;4.70;;;19.00;99.90;;;;;;4980099;28;20023;-72
2023/06/29 00:33:25;;;;;;;6.35;4.40;;;19.00;99.90;;;;;;4980339;28;20019;-72
2023/06/29 00:35:50;;;;;;;12.15;4.40;;;18.90;99.90;;;;;;4979984;28;20038;-72
2023/06/29 00:38:16;;;;;;;8.75;4.65;;;18.80;99.90;;;;;;4980285;28;20384;-72
2023/06/29 00:40:42;;;;;;;11.63;5.07;;;18.80;99.90;;;;;;4979594;28;20381;-72
2023/06/29 00:43:08;;;;;;;8.02;4.72;;;18.80;99.90;;;;;;4980146;28;20037;-72
2023/06/29 00:45:34;;;;;;;7.75;4.85;;;18.80;99.90;;;;;;4979803;28;20419;-72
2023/06/29 00:48:00;;;;;;;11.60;5.30;;;18.80;99.90;;;;;;4979968;28;20026;-72
2023/06/29 00:50:26;;;;;;;8.98;5.28;;;18.70;99.90;;;;;;4979811;28;20033;-72
2023/06/29 00:52:52;;;;;;;11.93;5.72;;;18.70;99.90;;;;;;4979846;28;20022;-72
2023/06/29 00:55:18;;;;;;;13.27;6.13;;;18.70;99.90;;;;;;4979656;28;20035;-72
2023/06/29 00:57:44;;;;;;;8.88;5.82;;;18.70;99.90;;;;;;4973337;28;20031;-72
2023/06/29 01:00:10;;;;;;;9.70;5.60;;;18.70;99.90;;;;;;4973718;28;20041;-73
2023/06/29 01:02:40;;;;;;;9.18;5.18;;;18.70;99.90;;;;;;5010734;28;20027;-73
2023/06/29 01:05:09;;;;;;;8.35;4.93;;;18.80;99.90;;;;;;4977591;28;20026;-72
2023/06/29 01:07:58;;;;;;;10.75;5.65;;;18.90;99.90;;;;;;4979232;28;20081;-72
2023/06/29 01:10:27;;;;;;;10.88;5.25;;;19.00;99.90;;;;;;4979282;28;20019;-72
2023/06/29 01:12:54;;;;;;;11.00;6.05;;;19.10;99.90;;;;;;4979197;28;20023;-72
2023/06/29 01:15:21;;;;;;;10.48;5.80;;;19.20;99.90;;;;;;4979138;28;20022;-71
2023/06/29 01:17:48;;;;;;;14.80;6.72;;;19.30;99.90;;;;;;4979403;28;20027;-71
2023/06/29 01:20:15;;;;;;;9.32;5.70;;;19.40;99.90;;;;;;4978752;28;20605;-72
2023/06/29 01:23:07;;;;;;;13.85;5.47;;;19.40;99.90;;;;;;4979151;28;20153;-72
2023/06/29 01:25:36;;;;;;;9.77;5.82;;;19.50;99.90;;;;;;4975538;28;20069;-72
2023/06/29 01:28:08;;;;;;;12.55;5.57;;;19.60;99.90;;;;;;4978828;28;20031;-72
2023/06/29 01:30:39;;;;;;;11.35;5.55;;;19.60;99.90;;;;;;4976877;28;20026;-72
2023/06/29 01:33:06;;;;;;;8.02;5.40;;;19.70;99.90;;;;;;4978965;28;20555;-72
2023/06/29 01:35:32;;;;;;;10.57;4.88;;;19.70;99.90;;;;;;4979035;28;20049;-72
2023/06/29 01:38:10;;;;;;;11.95;4.80;;;19.70;99.90;;;;;;4978850;28;20046;-72
2023/06/29 01:40:40;;;;;;;12.02;4.88;;;19.70;99.90;;;;;;4977006;28;20031;-72
2023/06/29 01:43:06;;;;;;;7.25;4.60;;;19.70;99.90;;;;;;4979040;28;20027;-73
2023/06/29 01:45:34;;;;;;;6.88;4.68;;;19.60;99.90;;;;;;4977532;28;20455;-72
2023/06/29 01:48:01;;;;;;;10.30;4.90;;;19.60;99.90;;;;;;5010099;28;20019;-73
2023/06/29 01:50:27;;;;;;;10.40;5.45;;;19.50;99.90;;;;;;4978660;28;20101;-72
2023/06/29 01:52:52;;;;;;;9.90;4.88;;;19.40;99.90;;;;;;4978893;28;20034;-72
2023/06/29 01:55:19;;;;;;;11.75;6.07;;;19.30;99.90;;;;;;4978618;28;20039;-72
2023/06/29 01:57:45;;;;;;;11.98;5.13;;;19.20;99.90;;;;;;4972158;28;20023;-71
2023/06/29 02:00:11;;;;;;;8.95;4.47;;;19.20;99.90;;;;;;4973930;28;20038;-72
2023/06/29 02:02:37;;;;;;;11.57;7.20;;;19.20;99.90;;;;;;4978640;28;20023;-72
2023/06/29 02:05:03;;;;;;;10.95;4.43;;;19.10;99.90;;;;;;4978290;28;20042;-72
2023/06/29 02:07:29;;;;;;;12.95;4.80;;;19.10;99.90;;;;;;4978598;28;20030;-72
2023/06/29 02:09:55;;;;;;;11.68;5.40;;;19.00;99.90;;;;;;4978351;28;20030;-72
2023/06/29 02:12:20;;;;;;;13.13;5.32;;;19.00;99.90;;;;;;4978083;28;20070;-72
2023/06/29 02:14:46;;;;;;;7.70;4.80;;;19.00;99.90;;;;;;5009602;28;20062;-72
2023/06/29 02:17:12;;;;;;;10.25;5.53;;;19.00;99.90;;;;;;4978474;28;20073;-72
2023/06/29 02:19:37;;;;;;;8.07;4.55;;;18.90;99.90;;;;;;5009379;28;20407;-72
2023/06/29 02:22:03;;;;;;;10.05;5.32;;;18.90;99.90;;;;;;4976998;28;20455;-72
2023/06/29 02:24:29;;;;;;;11.82;5.70;;;18.90;99.90;;;;;;4978258;28;20475;-71
2023/06/29 02:26:54;;;;;;;9.30;4.80;;;18.80;99.90;;;;;;4977920;28;20022;-72
2023/06/29 02:29:20;;;;;;;9.70;5.03;;;18.80;99.90;;;;;;4976905;28;20030;-72
2023/06/29 02:31:46;;;;;;;9.45;5.20;;;18.90;99.90;;;;;;5009338;28;20011;-72
2023/06/29 02:34:12;;;;;;;16.05;6.03;;;18.80;99.90;;;;;;4978062;28;20049;-72
2023/06/29 02:36:37;;;;;;;8.88;5.20;;;18.80;99.90;;;;;;4977694;28;20555;-72
2023/06/29 02:39:04;;;;;;;10.20;5.07;;;18.80;99.90;;;;;;4978225;28;20031;-72
2023/06/29 02:41:30;;;;;;;9.77;5.15;;;18.80;99.90;;;;;;4976878;28;20031;-73
2023/06/29 02:43:56;;;;;;;8.02;5.00;;;18.70;99.90;;;;;;4978109;28;20027;-72
2023/06/29 02:46:21;;;;;;;10.90;5.25;;;18.70;99.90;;;;;;4977842;28;20023;-72
2023/06/29 02:48:47;;;;;;;12.80;4.90;;;18.70;99.90;;;;;;4976791;28;20027;-72
2023/06/29 02:51:13;;;;;;;12.20;5.05;;;18.60;99.90;;;;;;5009034;28;20161;-72
2023/06/29 02:53:38;;;;;;;9.90;4.93;;;18.60;99.90;;;;;;5009456;28;20035;-72
2023/06/29 02:56:04;;;;;;;10.25;5.13;;;18.60;99.90;;;;;;4977606;28;20027;-72
2023/06/29 02:58:29;;;;;;;11.27;4.68;;;18.60;99.90;;;;;;4965778;28;20034;-72
2023/06/29 03:00:55;;;;;;;11.25;5.15;;;18.60;99.90;;;;;;4976688;28;20023;-72
2023/06/29 03:03:21;;;;;;;11.07;6.47;;;18.60;99.90;;;;;;4977607;28;20037;-72
2023/06/29 03:05:46;;;;;;;10.05;5.22;;;18.60;99.90;;;;;;4974976;28;20061;-72
2023/06/29 03:08:12;;;;;;;7.15;4.97;;;18.50;99.90;;;;;;4977060;28;20034;-72
2023/06/29 03:10:38;;;;;;;8.68;5.30;;;18.50;99.90;;;;;;4977354;28;20030;-72
2023/06/29 03:13:05;;;;;;;10.63;6.10;;;18.50;99.90;;;;;;4976301;28;20031;-72
2023/06/29 03:15:30;;;;;;;9.93;5.60;;;18.40;99.90;;;;;;4977579;28;20027;-72
2023/06/29 03:17:56;;;;;;;10.35;6.53;;;18.50;99.90;;;;;;4977891;28;20058;-72
2023/06/29 03:20:21;;;;;;;8.45;5.40;;;18.50;99.90;;;;;;4977458;28;20055;-72
2023/06/29 03:22:47;;;;;;;11.00;5.22;;;18.40;99.90;;;;;;4977766;28;20065;-73
2023/06/29 03:25:13;;;;;;;8.23;4.93;;;18.40;99.90;;;;;;4977343;28;20043;-70
2023/06/29 03:27:38;;;;;;;8.68;5.70;;;18.40;99.90;;;;;;4976164;28;20059;-72
2023/06/29 03:30:05;;;;;;;9.35;5.20;;;18.30;99.90;;;;;;4977419;28;20050;-72
2023/06/29 03:32:30;;;;;;;12.43;4.63;;;18.30;99.90;;;;;;4977809;28;20023;-72
2023/06/29 03:34:56;;;;;;;8.48;6.07;;;18.30;99.90;;;;;;4977420;28;20505;-72
2023/06/29 03:37:21;;;;;;;16.38;5.95;;;18.30;99.90;;;;;;4976479;28;20042;-72
2023/06/29 03:39:47;;;;;;;10.23;5.72;;;18.30;99.90;;;;;;4977445;28;20373;-72
2023/06/29 03:42:13;;;;;;;12.93;6.28;;;18.20;99.90;;;;;;4977322;28;20680;-70
2023/06/29 03:44:39;;;;;;;10.48;6.07;;;18.20;99.90;;;;;;4977341;28;20089;-72
2023/06/29 03:47:06;;;;;;;8.45;5.18;;;18.20;99.90;;;;;;4977533;28;20577;-72
2023/06/29 03:49:32;;;;;;;12.27;5.50;;;18.20;99.90;;;;;;4976081;28;20027;-72
2023/06/29 03:51:58;;;;;;;9.50;5.45;;;18.20;99.90;;;;;;4976292;28;20046;-72
2023/06/29 03:54:24;;;;;;;6.63;4.97;;;18.20;99.90;;;;;;4980722;28;20027;-72
2023/06/29 03:56:50;;;;;;;9.82;5.43;;;18.10;99.90;;;;;;4980841;28;20065;-72
2023/06/29 03:59:15;;;;;;;9.52;5.55;;;18.10;99.90;;;;;;4968175;28;20554;-72
2023/06/29 04:01:41;;;;;;;11.38;5.68;;;18.20;99.90;;;;;;4980942;28;20130;-71
2023/06/29 04:04:07;;;;;;;9.13;5.65;;;18.10;99.90;;;;;;4980441;28;20065;-72
2023/06/29 04:06:32;;;;;;;9.55;5.97;;;18.10;99.90;;;;;;4980712;28;20062;-72
2023/06/29 04:08:58;;;;;;;11.63;6.78;;;18.20;99.90;;;;;;4979200;28;20118;-72
2023/06/29 04:11:24;;;;;;;10.93;5.25;;;18.10;99.90;;;;;;4980357;28;20037;-72
2023/06/29 04:13:49;;;;;;;9.20;4.72;;;18.20;99.90;;;;;;4980359;28;20510;-72
2023/06/29 04:16:15;;;;;;;11.73;5.53;;;18.20;99.90;;;;;;4980654;28;20023;-73
2023/06/29 04:18:41;;;;;;;9.70;5.53;;;18.10;99.90;;;;;;4979083;28;20034;-72
2023/06/29 04:21:06;;;;;;;15.93;5.70;;;18.10;99.90;;;;;;4980375;28;20051;-72
2023/06/29 04:23:32;;;;;;;12.27;5.45;;;18.10;99.90;;;;;;4980236;28;20391;-72
2023/06/29 04:26:02;;;;;;;9.13;5.10;;;18.20;99.90;;;;;;4980053;28;20019;-72
2023/06/29 04:28:28;;;;;;;12.88;6.32;;;18.20;99.90;;;;;;4979975;28;20451;-72
2023/06/29 04:30:54;;;;;;;12.43;6.15;;;18.20;99.90;;;;;;4980377;28;20058;-72
2023/06/29 04:33:21;;;;;;;16.00;5.38;;;18.20;99.90;;;;;;4978772;28;20434;-72
2023/06/29 04:35:46;;;;;;;13.50;5.95;;;18.20;99.90;;;;;;4980403;28;20029;-72
2023/06/29 04:38:13;;;;;;;8.35;4.90;;;18.20;99.90;;;;;;4979726;28;20399;-71
2023/06/29 04:40:39;;;;;;;13.98;6.88;;;18.20;99.90;;;;;;4979780;28;20487;-72
2023/06/29 04:43:06;;;;;;;11.18;5.40;;;18.20;99.90;;;;;;4978866;28;20061;-72
2023/06/29 04:45:32;;;;;;;12.88;5.65;;;18.30;99.90;;;;;;4978911;28;20027;-72
2023/06/29 04:47:58;;;;;;;9.95;5.13;;;18.30;99.90;;;;;;4979463;28;20034;-72
2023/06/29 04:50:25;;;;;;;10.77;5.45;;;18.30;99.90;;;;;;4978529;28;20113;-72
2023/06/29 04:52:55;;;;;;;15.20;5.22;;;18.30;99.90;;;;;;4978667;28;20114;-72
2023/06/29 04:55:22;;;;;;;13.73;6.25;;;18.40;99.90;;;;;;4972416;28;20033;-72
2023/06/29 04:57:48;;;;;;;12.65;6.50;;;18.40;99.90;;;;;;4974086;28;20027;-72
2023/06/29 05:00:14;;;;;;;14.85;6.25;;;18.40;99.90;;;;;;4979847;28;20030;-72
2023/06/29 05:02:41;;;;;;;8.40;5.07;;;18.40;99.90;;;;;;4979732;28;20014;-73
2023/06/29 05:05:07;;;;;;;11.48;6.03;;;18.50;99.90;;;;;;4979323;28;20431;-72
2023/06/29 05:07:34;;;;;;;10.82;5.60;;;18.50;99.90;;;;;;4979522;28;20027;-72
2023/06/29 05:10:00;;;;;;;12.77;6.18;;;18.50;99.90;;;;;;4979572;28;20054;-72
2023/06/29 05:12:26;;;;;;;13.15;6.82;;;18.50;99.90;;;;;;4977999;28;20022;-72
2023/06/29 05:14:54;;;;;;;12.98;5.80;;;18.60;99.90;;;;;;4978122;28;20027;-72
2023/06/29 05:17:20;;;;;;;11.45;6.10;;;18.60;99.90;;;;;;4979490;28;20427;-72
2023/06/29 05:19:46;;;;;;;11.32;5.50;;;18.60;99.90;;;;;;4979002;28;20037;-72
2023/06/29 05:22:12;;;;;;;11.57;5.18;;;18.60;99.90;;;;;;4979245;28;20027;-72
2023/06/29 05:24:37;;;;;;;9.55;5.32;;;18.60;99.90;;;;;;4977885;28;20101;-71
2023/06/29 05:27:04;;;;;;;9.88;5.80;;;18.70;99.90;;;;;;4979217;28;20110;-72
2023/06/29 05:29:29;;;;;;;13.05;6.20;;;18.70;99.90;;;;;;4979063;28;20027;-71
2023/06/29 05:31:55;;;;;;;10.90;6.03;;;18.70;99.90;;;;;;4977839;28;20030;-71
2023/06/29 05:34:21;;;;;;;11.23;5.68;;;18.80;99.90;;;;;;4978915;28;20030;-73
2023/06/29 05:36:47;;;;;;;9.65;6.15;;;18.90;99.90;;;;;;4979015;28;20023;-72
2023/06/29 05:39:12;;;;;;;15.20;4.78;;;18.90;99.90;;;;;;4977549;28;20031;-72
2023/06/29 05:41:38;;;;;;;10.80;5.40;;;18.90;99.90;;;;;;4978719;28;20054;-71
2023/06/29 05:44:06;;;;;;;17.02;6.05;;;19.00;99.90;;;;;;4978621;28;20038;-70
2023/06/29 05:46:33;;;;;;;8.80;5.53;;;19.10;99.90;;;;;;4978791;28;20065;-71
2023/06/29 05:48:59;;;;;;;9.57;5.00;;;19.10;99.90;;;;;;4978642;28;20045;-72
2023/06/29 05:51:25;;;;;;;12.70;5.50;;;19.10;99.90;;;;;;4978968;28;20023;-71
2023/06/29 05:53:52;;;;;;;8.18;5.25;;;19.10;99.90;;;;;;4977189;28;20023;-71
2023/06/29 05:56:17;;;;;;;10.98;6.00;;;19.10;99.90;;;;;;4978375;28;20046;-71
2023/06/29 05:58:43;;;;;;;11.43;5.15;;;19.20;99.90;;;;;;4969325;28;20026;-72
2023/06/29 06:01:09;;;;;;;8.10;4.82;;;19.40;99.90;;;;;;4978339;28;20022;-71
2023/06/29 06:03:35;;;;;;;12.63;6.15;;;19.50;99.90;;;;;;4978319;28;20403;-70
2023/06/29 06:06:02;;;;;;;13.77;5.25;;;19.60;99.90;;;;;;4976009;28;20018;-70
2023/06/29 06:08:27;;;;;;;8.77;5.00;;;19.70;99.90;;;;;;4978244;28;20492;-69
2023/06/29 06:10:53;;;;;;;7.72;4.15;;;19.80;99.90;;;;;;4978207;28;20125;-71
2023/06/29 06:13:18;;;;;;;11.07;5.90;;;19.80;99.90;;;;;;4978210;28;20026;-71
2023/06/29 06:15:45;;;;;;;8.90;4.63;;;19.80;99.90;;;;;;4977968;28;20031;-71
2023/06/29 06:18:10;;;;;;;11.70;5.28;;;19.90;99.90;;;;;;4975347;28;20031;-69
2023/06/29 06:20:36;;;;;;;14.05;5.25;;;19.90;99.90;;;;;;4978210;28;20046;-69
2023/06/29 06:23:01;;;;;;;12.38;5.32;;;19.90;99.90;;;;;;4977948;28;20026;-71
2023/06/29 06:25:27;;;;;;;8.95;4.60;;;19.90;99.90;;;;;;4974656;28;20030;-71
2023/06/29 06:27:53;;;;;;;9.00;4.78;;;20.00;99.90;;;;;;4975201;28;20042;-70
2023/06/29 06:30:19;;;;;;;17.27;6.40;;;20.00;99.90;;;;;;4976759;28;20484;-71
2023/06/29 06:32:45;;;;;;;8.30;4.65;;;20.10;99.90;;;;;;5008059;28;20023;-71
2023/06/29 06:35:12;;;;;;;9.60;5.20;;;20.10;99.90;;;;;;4976949;28;20119;-71
2023/06/29 06:37:38;;;;;;;9.50;5.28;;;20.20;99.90;;;;;;4976617;28;20027;-70
2023/06/29 06:40:07;;;;;;;8.88;4.68;;;20.30;99.90;;;;;;4976346;28;20212;-71
2023/06/29 06:42:34;;;;;;;16.70;5.07;;;20.40;99.90;;;;;;4976755;28;20023;-71
2023/06/29 06:45:03;;;;;;;14.23;5.53;;;20.40;99.90;;;;;;4976724;28;20025;-70
2023/06/29 06:47:30;;;;;;;14.18;5.22;;;20.50;99.90;;;;;;4974906;28;20034;-71
2023/06/29 06:49:55;;;;;;;10.57;5.20;;;20.50;99.90;;;;;;4976846;28;20043;-70
2023/06/29 06:52:21;;;;;;;18.00;5.03;;;20.60;99.90;;;;;;4976983;28;20042;-70
2023/06/29 06:54:47;;;;;;;7.82;5.05;;;20.60;99.90;;;;;;4976920;28;20038;-72
2023/06/29 06:57:12;;;;;;;9.93;4.93;;;20.70;99.90;;;;;;4974611;28;20038;-70
2023/06/29 06:59:38;;;;;;;10.63;5.15;;;20.70;99.90;;;;;;5007930;28;20026;-70
2023/06/29 07:02:05;;;;;;;12.23;5.60;;;20.80;99.90;;;;;;4976410;28;20038;-71
2023/06/29 07:04:31;;;;;;;9.93;5.43;;;20.90;99.90;;;;;;5007881;28;20494;-71
2023/06/29 07:06:57;;;;;;;9.27;4.55;;;21.00;99.90;;;;;;4975710;28;20085;-71
2023/06/29 07:09:22;;;;;;;10.57;4.97;;;21.10;99.90;;;;;;4976736;28;20488;-70
2023/06/29 07:11:48;;;;;;;9.77;5.00;;;21.20;99.90;;;;;;4976337;28;20050;-71
2023/06/29 07:14:15;;;;;;;9.23;4.47;;;21.30;99.90;;;;;;4976430;28;20102;-71
2023/06/29 07:16:41;;;;;;;7.05;5.07;;;21.50;99.90;;;;;;4975477;28;20039;-70
2023/06/29 07:19:08;;;;;;;5.88;3.90;;;21.50;99.90;;;;;;4976556;28;20550;-73
2023/06/29 07:21:34;;;;;;;10.52;4.97;;;21.40;99.90;;;;;;4976390;28;20443;-69
2023/06/29 07:24:00;;;;;;;11.57;4.32;;;21.40;99.90;;;;;;4975067;28;20027;-71
2023/06/29 07:26:26;;;;;;;9.35;4.03;;;21.50;99.90;;;;;;4975724;28;20157;-70
2023/06/29 07:28:52;;;;;;;7.28;4.32;;;21.60;99.90;;;;;;4978795;28;20027;-72
2023/06/29 07:31:18;;;;;;;8.43;4.68;;;21.70;99.90;;;;;;4976408;28;20033;-70
2023/06/29 07:33:43;;;;;;;8.68;4.30;;;21.60;99.90;;;;;;4979895;28;20030;-70
2023/06/29 07:36:09;;;;;;;10.55;4.55;;;21.50;99.90;;;;;;4979048;28;20027;-71
2023/06/29 07:38:35;;;;;;;13.93;6.13;;;21.50;99.90;;;;;;4979978;28;20023;-70
2023/06/29 07:41:03;;;;;;;11.48;5.20;;;21.50;99.90;;;;;;4977764;28;20450;-69
2023/06/29 07:43:28;;;;;;;8.52;5.30;;;21.50;99.90;;;;;;4980418;28;20038;-71
2023/06/29 07:45:55;;;;;;;8.90;4.45;;;21.50;99.90;;;;;;4977716;28;20388;-71
2023/06/29 07:48:21;;;;;;;11.18;4.60;;;21.60;99.90;;;;;;4979551;28;20038;-72
2023/06/29 07:50:47;;;;;;;11.93;5.93;;;21.70;99.90;;;;;;4978535;28;20022;-71
2023/06/29 07:53:12;;;;;;;7.15;4.32;;;21.80;99.90;;;;;;4977622;28;20023;-72
2023/06/29 07:55:38;;;;;;;8.88;5.07;;;22.10;99.90;;;;;;4974007;28;20102;-70
2023/06/29 07:58:03;;;;;;;10.85;5.03;;;22.10;99.90;;;;;;4972568;28;20200;-70
2023/06/29 08:00:29;;;;;;;15.57;5.07;;;22.30;99.90;;;;;;4977050;28;20034;-70
2023/06/29 08:02:55;;;;;;;11.52;4.47;;;22.50;99.90;;;;;;4978591;28;20081;-69
2023/06/29 08:05:21;;;;;;;10.88;5.10;;;22.60;99.90;;;;;;4978774;28;20077;-69
2023/06/29 08:07:49;;;;;;;8.55;5.00;;;22.50;99.90;;;;;;4977095;28;20453;-69
2023/06/29 08:10:15;;;;;;;7.57;4.55;;;22.50;99.90;;;;;;4979236;28;20480;-70
2023/06/29 08:12:41;;;;;;;10.88;4.93;;;22.60;99.90;;;;;;4972392;28;20439;-69
2023/06/29 08:15:07;;;;;;;13.95;4.82;;;22.60;99.90;;;;;;4979421;28;20403;-69
2023/06/29 08:17:32;;;;;;;10.00;4.97;;;22.70;99.90;;;;;;4976534;28;20046;-70
2023/06/29 08:19:58;;;;;;;17.02;5.80;;;22.80;99.90;;;;;;4975987;28;20120;-69
2023/06/29 08:22:24;;;;;;;11.00;4.57;;;23.00;99.90;;;;;;4977640;28;20023;-70
2023/06/29 08:24:51;;;;;;;11.02;4.95;;;23.20;99.90;;;;;;4976865;28;20058;-70
2023/06/29 08:27:16;;;;;;;11.65;4.45;;;23.30;99.90;;;;;;4976565;28;20022;-70
2023/06/29 08:29:42;;;;;;;14.77;5.15;;;23.20;99.90;;;;;;4976116;28;20058;-71
2023/06/29 08:32:08;;;;;;;11.73;4.80;;;23.30;99.90;;;;;;4979106;28;20539;-71
2023/06/29 08:34:34;;;;;;;11.98;5.28;;;23.30;99.90;;;;;;4978855;28;20081;-69
2023/06/29 08:36:59;;;;;;;10.93;4.57;;;23.30;99.90;;;;;;4978203;28;20387;-70
2023/06/29 08:39:25;;;;;;;16.15;5.35;;;23.50;99.90;;;;;;4976955;28;20654;-72
2023/06/29 08:41:51;;;;;;;11.27;5.28;;;23.50;99.90;;;;;;4978737;28;20604;-71
2023/06/29 08:44:17;;;;;;;9.55;4.22;;;23.60;99.90;;;;;;4978918;28;20046;-71
2023/06/29 08:46:45;;;;;;;7.30;5.03;;;23.80;99.90;;;;;;5008226;28;20026;-70
2023/06/29 08:49:14;;;;;;;10.90;4.97;;;23.70;99.90;;;;;;4978779;28;20026;-70
2023/06/29 08:51:43;;;;;;;14.20;4.78;;;23.80;99.90;;;;;;5009271;28;20049;-70
2023/06/29 08:54:12;;;;;;;8.63;4.55;;;23.90;99.90;;;;;;4978080;28;20034;-71
2023/06/29 08:56:37;;;;;;;9.23;4.50;;;24.00;99.90;;;;;;4977710;28;20046;-70
2023/06/29 08:59:04;;;;;;;11.00;4.35;;;24.20;99.90;;;;;;4977920;28;20035;-70
2023/06/29 09:01:31;;;;;;;11.15;5.18;;;24.40;99.90;;;;;;4977369;28;20034;-71
2023/06/29 09:03:57;;;;;;;9.52;4.55;;;24.40;99.90;;;;;;4978539;28;20026;-70
2023/06/29 09:06:23;;;;;;;9.18;4.78;;;24.60;99.90;;;;;;4975794;28;20035;-71
2023/06/29 09:08:49;;;;;;;9.88;5.13;;;24.60;99.90;;;;;;4976449;28;20023;-71
2023/06/29 09:11:15;;;;;;;7.45;4.75;;;24.60;99.90;;;;;;4977725;28;20023;-71
2023/06/29 09:13:41;;;;;;;15.25;5.25;;;24.50;99.90;;;;;;4978248;28;20037;-71
2023/06/29 09:16:09;;;;;;;8.98;4.40;;;24.40;99.90;;;;;;4977370;28;20011;-70
2023/06/29 09:18:35;;;;;;;8.32;4.75;;;24.50;99.90;;;;;;4978307;28;20058;-70
2023/06/29 09:21:00;;;;;;;12.38;5.03;;;24.80;99.90;;;;;;4976752;28;20507;-70
2023/06/29 09:23:28;;;;;;;9.02;4.70;;;24.80;99.90;;;;;;4977652;28;20032;-70
2023/06/29 09:25:55;;;;;;;10.00;4.63;;;24.90;99.90;;;;;;5007631;28;20098;-71
2023/06/29 09:28:21;;;;;;;9.43;5.40;;;24.80;99.90;;;;;;4977899;28;20027;-70
2023/06/29 09:30:49;;;;;;;21.77;9.70;;;24.60;99.90;;;;;;4978035;28;20037;-71
2023/06/29 09:33:15;;;;;;;7.45;4.40;;;24.70;99.90;;;;;;4976617;28;20491;-71
2023/06/29 09:35:47;;;;;;;9.32;4.68;;;24.60;99.90;;;;;;4977547;28;20045;-70
2023/06/29 09:38:16;;;;;;;11.73;4.47;;;24.60;99.90;;;;;;4977025;28;20041;-71
2023/06/29 09:40:54;;;;;;;15.63;5.43;;;24.80;99.90;;;;;;4975795;28;20023;-70
2023/06/29 09:43:28;;;;;;;12.13;4.78;;;24.60;99.90;;;;;;4976543;28;20450;-71
2023/06/29 09:46:02;;;;;;;16.80;5.03;;;24.60;99.90;;;;;;4974145;28;20023;-71
2023/06/29 09:48:28;;;;;;;8.50;4.85;;;24.60;99.90;;;;;;5005597;28;20085;-71
2023/06/29 09:50:54;;;;;;;8.77;4.30;;;24.70;99.90;;;;;;4977109;28;20480;-70
2023/06/29 09:53:32;;;;;;;8.15;4.18;;;24.60;99.90;;;;;;4977641;28;20069;-71
2023/06/29 09:55:59;;;;;;;8.85;4.00;;;24.60;99.90;;;;;;5006344;28;20031;-71
2023/06/29 09:58:30;;;;;;;12.05;5.18;;;24.60;99.90;;;;;;4972365;28;20039;-71
2023/06/29 10:00:59;;;;;;;14.63;4.47;;;24.90;99.90;;;;;;4974758;28;20081;-71
2023/06/29 10:03:31;;;;;;;9.77;4.60;;;24.90;99.90;;;;;;4977530;28;20023;-72
2023/06/29 10:06:08;;;;;;;7.55;4.20;;;25.00;99.90;;;;;;4973242;28;20023;-72
2023/06/29 10:08:36;;;;;;;10.18;5.25;;;25.00;99.90;;;;;;4972905;28;20254;-71
2023/06/29 10:11:03;;;;;;;8.45;4.43;;;25.20;99.90;;;;;;4977057;28;20081;-71
2023/06/29 10:13:31;;;;;;;11.05;4.07;;;25.20;99.90;;;;;;4977221;28;20030;-71
2023/06/29 10:15:59;;;;;;;9.43;4.60;;;25.40;99.90;;;;;;4975433;28;20041;-71
2023/06/29 10:18:29;;;;;;;12.55;4.75;;;25.50;99.90;;;;;;4977295;28;20031;-71
2023/06/29 10:20:55;;;;;;;;;;;25.70;99.90;;;;;;4977906;28;20058;-71
2023/06/29 10:23:23;;;;;;;51.70;7.22;;;26.00;99.90;;;;;;4976886;28;19906;-70
2023/06/29 10:25:51;;;;;;;14.27;4.95;;;26.10;99.90;;;;;;4976465;28;20033;-70
2023/06/29 10:28:17;;;;;;;10.93;4.05;;;26.40;99.90;;;;;;4976747;28;20479;-70
2023/06/29 10:30:47;;;;;;;10.18;5.22;;;26.30;99.90;;;;;;4977303;28;20479;-70
2023/06/29 10:33:20;;;;;;;7.38;4.43;;;26.00;99.90;;;;;;4976999;28;20015;-70
2023/06/29 10:35:56;;;;;;;9.25;4.43;;;26.00;99.90;;;;;;4973178;28;20037;-72
2023/06/29 10:38:30;;;;;;;14.75;4.60;;;25.70;99.90;;;;;;4976882;28;20050;-71
2023/06/29 10:40:55;;;;;;;9.05;4.60;;;25.60;99.90;;;;;;4976872;28;20031;-71
2023/06/29 10:43:21;;;;;;;8.98;4.53;;;25.40;99.90;;;;;;4976829;28;20070;-71
2023/06/29 10:45:46;;;;;;;5.78;4.00;;;25.50;99.90;;;;;;4976554;28;20030;-71
2023/06/29 10:48:17;;;;;;;8.13;4.05;;;25.60;99.90;;;;;;4976308;28;20019;-71
2023/06/29 10:50:50;;;;;;;5.07;3.65;;;25.70;99.90;;;;;;4977058;28;20034;-70
2023/06/29 10:53:17;;;;;;;9.30;4.40;;;25.90;99.90;;;;;;5007014;28;20026;-70
2023/06/29 10:55:51;;;;;;;9.50;4.07;;;26.20;99.90;;;;;;4976053;28;20034;-71
2023/06/29 10:58:28;;;;;;;9.77;3.88;;;26.00;99.90;;;;;;4976263;28;20015;-71
2023/06/29 11:00:55;;;;;;;7.32;3.67;;;25.90;99.90;;;;;;4974858;28;20109;-70
2023/06/29 11:03:24;;;;;;;9.40;4.57;;;25.80;99.90;;;;;;4980605;28;20031;-70
2023/06/29 11:05:51;;;;;;;8.05;3.70;;;25.60;99.90;;;;;;4980297;28;20503;-71
2023/06/29 11:08:19;;;;;;;6.25;3.45;;;25.40;99.90;;;;;;4980334;28;20034;-71
2023/06/29 11:10:45;;;;;;;8.38;3.80;;;25.40;99.90;;;;;;4980126;28;20043;-70
2023/06/29 11:13:11;;;;;;;12.20;5.05;;;25.40;99.90;;;;;;4980583;28;20022;-70
2023/06/29 11:15:37;;;;;;;7.80;4.13;;;25.60;99.90;;;;;;4977989;28;20090;-70
2023/06/29 11:18:05;;;;;;;8.43;3.28;;;25.70;99.90;;;;;;4977942;28;20019;-71
2023/06/29 11:20:33;;;;;;;8.45;3.90;;;25.90;99.90;;;;;;4976260;28;20054;-69
2023/06/29 11:23:00;;;;;;;9.68;3.63;;;25.80;99.90;;;;;;4980067;28;20391;-70
2023/06/29 11:25:26;;;;;;;6.45;3.58;;;25.80;99.90;;;;;;4970083;28;20054;-71
2023/06/29 11:27:52;;;;;;;10.48;3.72;;;25.70;99.90;;;;;;4977037;28;20384;-70
2023/06/29 11:30:20;;;;;;;6.97;4.00;;;25.60;99.90;;;;;;4978720;28;20026;-70
2023/06/29 11:32:50;;;;;;;9.75;4.45;;;25.70;99.90;;;;;;4976989;28;20022;-70
2023/06/29 11:35:17;;;;;;;6.35;3.13;;;25.90;99.90;;;;;;4979080;28;20027;-69
2023/06/29 11:37:43;;;;;;;8.02;4.00;;;26.10;99.90;;;;;;4979146;28;20022;-70
2023/06/29 11:40:19;;;;;;;13.30;5.15;;;26.30;99.90;;;;;;4979933;28;20034;-70
2023/06/29 11:42:45;;;;;;;6.63;3.38;;;26.20;99.90;;;;;;4979918;28;20022;-69
2023/06/29 11:45:12;;;;;;;9.43;4.13;;;25.90;99.90;;;;;;4980201;28;20046;-70
2023/06/29 11:47:37;;;;;;;8.57;3.33;;;25.80;99.90;;;;;;4973866;28;20037;-72
2023/06/29 11:50:07;;;;;;;9.93;4.22;;;25.90;99.90;;;;;;4973963;28;20023;-72
2023/06/29 11:52:34;;;;;;;13.17;3.47;;;25.60;99.90;;;;;;4976195;28;20034;-70
2023/06/29 11:55:04;;;;;;;8.90;3.75;;;25.70;99.90;;;;;;4978810;28;20266;-70
2023/06/29 11:57:34;;;;;;;13.80;4.05;;;25.50;99.90;;;;;;4977291;28;20045;-70
2023/06/29 12:00:01;;;;;;;8.90;3.92;;;25.60;99.90;;;;;;4976340;28;20035;-71
2023/06/29 12:02:27;;;;;;;9.43;3.58;;;25.90;99.90;;;;;;4979296;28;20534;-70
2023/06/29 12:05:01;;;;;;;7.38;3.65;;;26.00;99.90;;;;;;4973971;28;20022;-70
2023/06/29 12:07:43;;;;;;;11.45;3.72;;;25.90;99.90;;;;;;4976915;28;20042;-70
2023/06/29 12:10:11;;;;;;;11.63;3.78;;;25.80;99.90;;;;;;4976601;28;20391;-71
2023/06/29 12:12:45;;;;;;;6.70;3.20;;;25.60;99.90;;;;;;4979182;28;20023;-70
2023/06/29 12:15:14;;;;;;;9.30;3.70;;;25.40;99.90;;;;;;4976893;28;20256;-69
2023/06/29 12:17:41;;;;;;;9.00;3.47;;;25.50;99.90;;;;;;4977506;28;20113;-71
2023/06/29 12:20:17;;;;;;;6.47;3.10;;;25.70;99.90;;;;;;4979132;28;20050;-70
2023/06/29 12:22:44;;;;;;;6.55;3.40;;;25.70;99.90;;;;;;4977633;28;20027;-70
2023/06/29 12:25:15;;;;;;;7.03;3.60;;;25.80;99.90;;;;;;4978856;28;20023;-70
2023/06/29 12:27:42;;;;;;;6.22;3.60;;;25.70;99.90;;;;;;4977008;28;20039;-70
2023/06/29 12:30:11;;;;;;;9.32;4.15;;;25.60;99.90;;;;;;4979153;28;20014;-70
2023/06/29 12:32:37;;;;;;;6.45;3.47;;;25.70;99.90;;;;;;4978996;28;20388;-70
2023/06/29 12:35:03;;;;;;;6.55;3.72;;;25.90;99.90;;;;;;4979308;28;20022;-70
2023/06/29 12:37:28;;;;;;;8.50;4.45;;;25.90;99.90;;;;;;4976994;28;20037;-70
2023/06/29 12:39:54;;;;;;;7.43;3.42;;;26.10;99.90;;;;;;4979083;28;20042;-70
2023/06/29 12:42:23;;;;;;;7.32;3.58;;;26.40;99.90;;;;;;4978541;28;20037;-70